createdAt,value
2019-06-27T00:02:16.061Z,8.83
2019-06-27T00:04:46.491Z,14.20
2019-06-27T00:07:17.006Z,8.57
2019-06-27T00:09:47.315Z,8.87
2019-06-27T00:12:18.112Z,10.40
2019-06-27T00:14:48.666Z,14.73
2019-06-27T00:17:20.561Z,9.00
2019-06-27T00:19:52.821Z,9.03
2019-06-27T00:22:23.532Z,9.00
2019-06-27T00:24:54.831Z,11.60
2019-06-27T00:27:28.046Z,16.23
2019-06-27T00:29:58.418Z,12.27
2019-06-27T00:32:28.743Z,11.90
2019-06-27T00:34:59.201Z,9.70
2019-06-27T00:37:29.566Z,14.13
2019-06-27T00:39:59.849Z,9.13
2019-06-27T00:42:30.380Z,9.50
2019-06-27T00:45:00.703Z,13.27
2019-06-27T00:47:31.522Z,10.33
2019-06-27T00:50:03.713Z,8.50
2019-06-27T00:52:34.222Z,12.60
2019-06-27T00:55:04.803Z,9.60
2019-06-27T00:57:35.331Z,17.50
2019-06-27T01:00:06.178Z,10.30
2019-06-27T01:02:36.988Z,10.60
2019-06-27T01:05:09.197Z,9.10
2019-06-27T01:07:39.997Z,9.20
2019-06-27T01:10:11.651Z,9.20
2019-06-27T01:12:42.238Z,9.17
2019-06-27T01:15:21.027Z,16.33
2019-06-27T01:17:58.888Z,10.70
2019-06-27T01:20:33.246Z,17.33
2019-06-27T01:23:04.247Z,18.33
2019-06-27T01:25:34.676Z,9.30
2019-06-27T01:28:05.062Z,13.77
2019-06-27T01:30:35.448Z,13.23
2019-06-27T01:33:05.796Z,9.67
2019-06-27T01:35:36.201Z,8.93
2019-06-27T01:38:07.122Z,9.00
2019-06-27T01:40:37.445Z,11.20
2019-06-27T01:43:07.872Z,8.13
2019-06-27T01:45:44.870Z,8.70
2019-06-27T01:48:15.262Z,12.83
2019-06-27T01:50:45.601Z,15.03
2019-06-27T01:53:16.057Z,9.60
2019-06-27T01:55:46.531Z,9.30
2019-06-27T01:58:16.847Z,11.70
2019-06-27T02:00:47.212Z,14.33
2019-06-27T02:03:17.589Z,10.10
2019-06-27T02:05:47.958Z,9.80
2019-06-27T02:08:19.192Z,10.43
2019-06-27T02:10:49.661Z,16.97
2019-06-27T02:13:19.958Z,13.03
2019-06-27T02:15:50.478Z,13.17
2019-06-27T02:18:20.757Z,15.07
2019-06-27T02:20:51.228Z,12.27
2019-06-27T02:23:21.616Z,10.40
2019-06-27T02:25:51.950Z,10.23
2019-06-27T02:28:22.294Z,12.67
2019-06-27T02:30:52.805Z,9.67
2019-06-27T02:33:23.156Z,12.43
2019-06-27T02:35:53.433Z,8.70
2019-06-27T02:38:23.913Z,14.10
2019-06-27T02:40:58.408Z,8.37
2019-06-27T02:43:26.953Z,8.77
2019-06-27T02:45:57.385Z,11.80
2019-06-27T02:48:27.840Z,9.50
2019-06-27T02:50:59.228Z,9.70
2019-06-27T02:53:29.673Z,9.23
2019-06-27T02:56:00.027Z,14.87
2019-06-27T02:58:32.388Z,10.30
2019-06-27T03:01:02.629Z,11.93
2019-06-27T03:03:32.992Z,11.77
2019-06-27T03:06:03.419Z,9.70
2019-06-27T03:08:33.780Z,9.63
2019-06-27T03:11:04.077Z,13.10
2019-06-27T03:13:34.647Z,9.90
2019-06-27T03:16:05.121Z,8.83
2019-06-27T03:18:35.782Z,8.43
2019-06-27T03:21:06.208Z,9.80
2019-06-27T03:23:37.318Z,9.33
2019-06-27T03:26:07.671Z,11.97
2019-06-27T03:28:52.097Z,9.30
2019-06-27T03:31:10.363Z,9.60
2019-06-27T03:33:40.973Z,9.60
2019-06-27T03:36:11.298Z,9.17
2019-06-27T03:38:42.253Z,11.93
2019-06-27T03:41:12.820Z,10.50
2019-06-27T03:43:43.152Z,10.83
2019-06-27T03:46:13.529Z,10.53
2019-06-27T03:48:43.850Z,15.33
2019-06-27T03:51:14.304Z,14.83
2019-06-27T03:53:44.799Z,13.27
2019-06-27T03:56:15.110Z,9.20
2019-06-27T03:58:45.502Z,10.80
2019-06-27T04:01:16.017Z,11.13
2019-06-27T04:03:46.374Z,11.40
2019-06-27T04:06:16.868Z,15.40
2019-06-27T04:08:47.249Z,9.37
2019-06-27T04:11:17.620Z,11.20
2019-06-27T04:13:47.963Z,15.23
2019-06-27T04:16:18.528Z,11.10
2019-06-27T04:18:48.977Z,12.03
2019-06-27T04:21:19.306Z,13.13
2019-06-27T04:23:49.703Z,9.23
2019-06-27T04:26:20.088Z,13.97
2019-06-27T04:28:50.452Z,9.23
2019-06-27T04:31:20.925Z,14.33
2019-06-27T04:33:51.378Z,8.87
2019-06-27T04:36:21.821Z,11.30
2019-06-27T04:38:52.216Z,9.60
2019-06-27T04:41:23.489Z,8.50
2019-06-27T04:43:53.845Z,9.63
2019-06-27T04:46:24.352Z,9.23
2019-06-27T04:48:58.785Z,17.97
2019-06-27T04:51:29.142Z,8.77
2019-06-27T04:54:10.581Z,8.20
2019-06-27T04:56:40.967Z,11.50
2019-06-27T04:59:11.452Z,11.00
2019-06-27T05:01:42.199Z,8.93
2019-06-27T05:04:12.631Z,10.40
2019-06-27T05:06:43.177Z,20.10
2019-06-27T05:09:13.549Z,18.03
2019-06-27T05:11:44.016Z,19.87
2019-06-27T05:14:14.396Z,23.90
2019-06-27T05:16:44.820Z,19.13
2019-06-27T05:19:15.450Z,13.83
2019-06-27T05:21:45.874Z,12.63
2019-06-27T05:24:16.213Z,10.80
2019-06-27T05:26:46.647Z,10.43
2019-06-27T05:29:16.990Z,12.95
2019-06-27T05:31:47.448Z,8.95
2019-06-27T05:34:17.823Z,13.08
2019-06-27T05:36:48.145Z,8.98
2019-06-27T05:39:18.483Z,15.53
2019-06-27T05:41:50.552Z,10.03
2019-06-27T05:44:21.149Z,11.35
2019-06-27T05:46:51.547Z,14.55
2019-06-27T05:49:21.914Z,8.63
2019-06-27T05:51:52.649Z,8.10
2019-06-27T05:54:22.968Z,7.97
2019-06-27T05:56:53.504Z,7.70
2019-06-27T05:59:23.881Z,10.40
2019-06-27T06:01:54.537Z,7.83
2019-06-27T06:04:24.983Z,9.40
2019-06-27T06:06:55.397Z,12.50
2019-06-27T06:09:25.814Z,7.30
2019-06-27T06:11:56.359Z,7.95
2019-06-27T06:14:27.132Z,8.50
2019-06-27T06:16:58.179Z,7.70
2019-06-27T06:19:28.765Z,7.87
2019-06-27T06:21:59.281Z,6.00
2019-06-27T06:24:29.645Z,6.97
2019-06-27T06:27:00.130Z,6.97
2019-06-27T06:29:30.545Z,6.78
2019-06-27T06:32:00.870Z,7.97
2019-06-27T06:34:31.276Z,11.08
2019-06-27T06:37:02.116Z,7.28
2019-06-27T06:39:33.158Z,8.03
2019-06-27T06:42:03.695Z,6.92
2019-06-27T06:44:34.460Z,6.62
2019-06-27T06:47:07.151Z,6.35
2019-06-27T06:49:37.456Z,7.53
2019-06-27T06:52:07.767Z,9.85
2019-06-27T06:54:38.307Z,10.65
2019-06-27T06:57:08.795Z,9.73
2019-06-27T06:59:39.173Z,9.88
2019-06-27T07:02:09.740Z,9.50
2019-06-27T07:04:40.069Z,11.35
2019-06-27T07:07:13.109Z,9.05
2019-06-27T07:09:42.559Z,10.03
2019-06-27T07:12:12.969Z,9.40
2019-06-27T07:14:43.363Z,9.23
2019-06-27T07:17:13.810Z,9.80
2019-06-27T07:19:44.138Z,12.03
2019-06-27T07:22:14.528Z,9.60
2019-06-27T07:24:44.916Z,8.80
2019-06-27T07:27:15.343Z,8.73
2019-06-27T07:29:45.721Z,11.10
2019-06-27T07:32:16.163Z,8.98
2019-06-27T07:34:46.535Z,16.95
2019-06-27T07:37:16.858Z,13.45
2019-06-27T07:39:47.344Z,9.93
2019-06-27T07:42:17.672Z,8.23
2019-06-27T07:44:48.028Z,9.00
2019-06-27T07:47:18.443Z,9.63
2019-06-27T07:49:48.931Z,8.45
2019-06-27T07:52:19.384Z,7.67
2019-06-27T07:54:50.217Z,8.93
2019-06-27T07:57:23.201Z,7.87
2019-06-27T07:59:53.674Z,8.40
2019-06-27T08:02:24.047Z,8.35
2019-06-27T08:04:54.515Z,7.72
2019-06-27T08:07:25.957Z,11.65
2019-06-27T08:09:56.335Z,9.20
2019-06-27T08:12:26.680Z,9.58
2019-06-27T08:14:58.171Z,10.80
2019-06-27T08:17:28.893Z,9.83
2019-06-27T08:19:59.434Z,11.05
2019-06-27T08:22:29.976Z,11.67
2019-06-27T08:25:00.441Z,13.30
2019-06-27T08:27:31.023Z,11.40
2019-06-27T08:30:02.064Z,15.03
2019-06-27T08:32:33.175Z,13.70
2019-06-27T08:35:03.959Z,13.33
2019-06-27T08:37:34.420Z,12.63
2019-06-27T08:40:05.048Z,14.23
2019-06-27T08:42:35.670Z,12.43
2019-06-27T08:45:06.333Z,12.60
2019-06-27T08:47:56.530Z,17.93
2019-06-27T08:50:26.934Z,13.30
2019-06-27T08:53:00.346Z,12.93
2019-06-27T08:55:29.475Z,14.40
2019-06-27T08:58:00.084Z,13.10
2019-06-27T09:00:32.584Z,14.67
2019-06-27T09:03:04.728Z,17.33
2019-06-27T09:05:35.940Z,13.57
2019-06-27T09:08:06.507Z,14.77
2019-06-27T09:10:37.006Z,15.07
2019-06-27T09:13:07.333Z,15.10
2019-06-27T09:15:52.674Z,14.50
2019-06-27T09:18:25.734Z,14.80
2019-06-27T09:20:59.444Z,14.33
2019-06-27T09:23:29.995Z,14.67
2019-06-27T09:26:00.419Z,12.70
2019-06-27T09:28:33.224Z,13.47
2019-06-27T09:31:05.413Z,11.50
2019-06-27T09:33:35.830Z,12.70
2019-06-27T09:36:06.473Z,11.77
2019-06-27T09:38:36.848Z,11.37
2019-06-27T09:41:07.304Z,15.57
2019-06-27T09:43:37.753Z,10.40
2019-06-27T09:46:08.131Z,11.43
2019-06-27T09:48:38.524Z,10.17
2019-06-27T09:51:09.123Z,10.63
2019-06-27T09:53:39.671Z,11.30
2019-06-27T09:56:10.122Z,9.30
2019-06-27T09:59:09.445Z,10.10
2019-06-27T10:01:39.885Z,9.93
2019-06-27T10:04:10.360Z,9.50
2019-06-27T10:06:40.690Z,14.03
2019-06-27T10:09:11.060Z,11.63
2019-06-27T10:11:41.440Z,10.60
2019-06-27T10:14:12.281Z,10.27
2019-06-27T10:16:43.721Z,10.90
2019-06-27T10:19:14.160Z,11.23
2019-06-27T10:21:44.618Z,12.10
2019-06-27T10:24:15.039Z,11.60
2019-06-27T10:26:45.457Z,11.20
2019-06-27T10:29:15.870Z,11.00
2019-06-27T10:31:46.389Z,13.57
2019-06-27T10:34:16.798Z,12.83
2019-06-27T10:36:47.155Z,11.07
2019-06-27T10:39:17.644Z,11.60
2019-06-27T10:41:48.063Z,10.63
2019-06-27T10:44:18.494Z,11.57
2019-06-27T10:46:48.963Z,14.73
2019-06-27T10:49:19.869Z,11.27
2019-06-27T10:51:50.208Z,12.43
2019-06-27T10:54:20.573Z,11.40
2019-06-27T10:56:50.991Z,11.40
2019-06-27T10:59:21.455Z,12.47
2019-06-27T11:01:51.864Z,12.37
2019-06-27T11:04:22.364Z,12.37
2019-06-27T11:06:52.783Z,11.70
2019-06-27T11:09:23.187Z,11.50
2019-06-27T11:11:53.937Z,10.90
2019-06-27T11:14:24.376Z,11.73
2019-06-27T11:16:54.900Z,11.20
2019-06-27T11:19:25.407Z,12.70
2019-06-27T11:21:55.725Z,14.33
2019-06-27T11:24:26.151Z,11.60
2019-06-27T11:26:56.556Z,11.33
2019-06-27T11:29:26.866Z,11.80
2019-06-27T11:31:57.247Z,12.07
2019-06-27T11:34:27.854Z,13.43
2019-06-27T11:36:58.217Z,12.43
2019-06-27T11:39:28.601Z,12.27
2019-06-27T11:41:59.037Z,11.93
2019-06-27T11:44:29.509Z,11.13
2019-06-27T11:46:59.865Z,17.70
2019-06-27T11:49:30.305Z,13.10
2019-06-27T11:52:01.025Z,11.00
2019-06-27T11:54:31.430Z,12.27
2019-06-27T11:57:01.820Z,11.57
2019-06-27T11:59:32.221Z,11.50
2019-06-27T12:02:02.653Z,11.77
2019-06-27T12:04:33.252Z,11.60
2019-06-27T12:07:03.644Z,13.93
2019-06-27T12:09:34.457Z,13.70
2019-06-27T12:12:04.974Z,19.13
2019-06-27T12:14:35.285Z,10.47
2019-06-27T12:17:05.655Z,11.50
2019-06-27T12:19:36.076Z,11.50
2019-06-27T12:22:06.611Z,11.30
2019-06-27T12:24:37.102Z,21.57
2019-06-27T12:27:07.893Z,11.03
2019-06-27T12:29:38.332Z,10.13
2019-06-27T12:32:09.276Z,13.60
2019-06-27T12:34:39.695Z,11.13
2019-06-27T12:37:10.128Z,17.03
2019-06-27T12:39:40.528Z,10.17
2019-06-27T12:42:10.839Z,11.30
2019-06-27T12:44:41.160Z,10.50
2019-06-27T12:47:11.644Z,11.57
2019-06-27T12:50:00.569Z,14.90
2019-06-27T12:52:14.161Z,10.90
2019-06-27T12:54:44.597Z,10.30
2019-06-27T12:57:15.040Z,10.80
2019-06-27T12:59:45.358Z,10.93
2019-06-27T13:02:15.870Z,13.60
2019-06-27T13:04:46.796Z,10.93
2019-06-27T13:07:17.214Z,11.87
2019-06-27T13:09:48.240Z,11.83
2019-06-27T13:12:18.633Z,10.97
2019-06-27T13:14:49.147Z,10.23
2019-06-27T13:17:19.564Z,10.17
2019-06-27T13:19:49.950Z,10.60
2019-06-27T13:22:20.400Z,15.97
2019-06-27T13:24:51.119Z,12.40
2019-06-27T13:27:21.676Z,12.53
2019-06-27T13:29:52.116Z,10.93
2019-06-27T13:32:25.518Z,10.40
2019-06-27T13:34:55.333Z,10.70
2019-06-27T13:37:25.650Z,12.20
2019-06-27T13:39:56.140Z,10.80
2019-06-27T13:42:26.610Z,9.53
2019-06-27T13:44:57.013Z,11.37
2019-06-27T13:47:27.399Z,10.57
2019-06-27T13:49:58.196Z,10.03
2019-06-27T13:52:28.685Z,14.40
2019-06-27T13:54:59.120Z,10.37
2019-06-27T13:57:29.518Z,10.20
2019-06-27T14:00:01.353Z,10.00
2019-06-27T14:02:32.050Z,11.17
2019-06-27T14:05:02.818Z,12.23
2019-06-27T14:07:33.257Z,12.37
2019-06-27T14:10:03.991Z,11.10
2019-06-27T14:12:34.623Z,10.43
2019-06-27T14:15:05.418Z,19.63
2019-06-27T14:17:35.921Z,13.67
2019-06-27T14:20:06.550Z,10.30
2019-06-27T14:22:36.981Z,11.60
2019-06-27T14:25:08.059Z,10.20
2019-06-27T14:27:38.712Z,11.37
2019-06-27T14:30:09.554Z,11.13
2019-06-27T14:32:40.014Z,10.03
2019-06-27T14:35:16.017Z,10.90
2019-06-27T14:37:42.897Z,12.40
2019-06-27T14:40:13.562Z,14.30
2019-06-27T14:42:44.298Z,10.73
2019-06-27T14:45:15.321Z,9.67
2019-06-27T14:47:45.707Z,15.37
2019-06-27T14:50:16.233Z,10.03
2019-06-27T14:52:47.332Z,12.13
2019-06-27T14:55:17.882Z,10.03
2019-06-27T14:57:48.861Z,14.23
2019-06-27T15:00:19.661Z,10.27
2019-06-27T15:02:50.157Z,9.20
2019-06-27T15:05:31.810Z,11.73
2019-06-27T15:07:52.764Z,9.50
2019-06-27T15:10:23.245Z,12.53
2019-06-27T15:12:57.318Z,9.60
2019-06-27T15:15:25.942Z,9.90
2019-06-27T15:17:56.464Z,9.13
2019-06-27T15:20:26.760Z,11.07
2019-06-27T15:22:57.290Z,11.07
2019-06-27T15:25:34.434Z,9.70
2019-06-27T15:28:04.880Z,9.07
2019-06-27T15:30:35.448Z,9.77
2019-06-27T15:33:05.860Z,9.40
2019-06-27T15:35:50.976Z,9.37
2019-06-27T15:38:09.036Z,9.57
2019-06-27T15:40:39.379Z,11.80
2019-06-27T15:43:09.891Z,10.80
2019-06-27T15:45:40.517Z,13.20
2019-06-27T15:48:10.897Z,10.73
2019-06-27T15:50:41.277Z,9.80
2019-06-27T15:53:11.734Z,10.07
2019-06-27T15:55:42.233Z,10.63
2019-06-27T15:58:12.728Z,11.30
2019-06-27T16:00:43.117Z,11.43
2019-06-27T16:03:14.085Z,11.77
2019-06-27T16:05:44.607Z,10.90
2019-06-27T16:08:15.053Z,10.27
2019-06-27T16:10:45.698Z,16.40
2019-06-27T16:13:16.198Z,13.53
2019-06-27T16:15:46.657Z,12.30
2019-06-27T16:18:17.168Z,14.43
2019-06-27T16:20:47.969Z,12.10
2019-06-27T16:23:18.394Z,11.93
2019-06-27T16:25:49.217Z,11.40
2019-06-27T16:28:19.655Z,12.17
2019-06-27T16:30:50.032Z,12.80
2019-06-27T16:33:20.398Z,11.20
2019-06-27T16:35:50.848Z,11.70
2019-06-27T16:38:21.249Z,12.43
2019-06-27T16:40:51.624Z,11.23
2019-06-27T16:43:22.105Z,11.70
2019-06-27T16:45:52.455Z,10.93
2019-06-27T16:48:22.799Z,28.80
2019-06-27T16:50:53.247Z,10.97
2019-06-27T16:53:23.758Z,11.77
2019-06-27T16:55:54.145Z,12.10
2019-06-27T16:58:24.829Z,14.30
2019-06-27T17:00:55.272Z,13.10
2019-06-27T17:03:27.419Z,10.57
2019-06-27T17:05:57.741Z,10.97
2019-06-27T17:08:28.210Z,11.50
2019-06-27T17:10:58.995Z,10.97
2019-06-27T17:13:29.450Z,10.70
2019-06-27T17:15:59.823Z,11.90
2019-06-27T17:18:30.356Z,12.20
2019-06-27T17:21:00.807Z,12.17
2019-06-27T17:23:31.173Z,10.47
2019-06-27T17:26:01.581Z,10.10
2019-06-27T17:28:35.035Z,10.83
2019-06-27T17:31:04.551Z,20.10
2019-06-27T17:33:34.955Z,12.07
2019-06-27T17:36:05.383Z,10.83
2019-06-27T17:38:35.871Z,12.30
2019-06-27T17:41:06.307Z,11.27
2019-06-27T17:43:36.681Z,19.50
2019-06-27T17:46:07.229Z,16.70
2019-06-27T17:48:37.698Z,10.80
2019-06-27T17:51:08.368Z,10.80
2019-06-27T17:53:38.713Z,10.97
2019-06-27T17:56:09.193Z,11.43
2019-06-27T17:58:39.516Z,19.67
2019-06-27T18:01:09.883Z,19.43
2019-06-27T18:03:40.405Z,12.93
2019-06-27T18:06:10.776Z,14.07
2019-06-27T18:08:41.095Z,13.17
2019-06-27T18:11:11.525Z,36.30
2019-06-27T18:13:42.699Z,15.33
2019-06-27T18:16:13.210Z,16.37
2019-06-27T18:18:43.593Z,19.37
2019-06-27T18:21:14.026Z,14.00
2019-06-27T18:23:53.955Z,88.70
2019-06-27T18:26:26.523Z,107.67
2019-06-27T18:29:21.568Z,77.67
2019-06-27T18:31:53.470Z,149.03
2019-06-27T18:34:24.529Z,187.10
2019-06-27T18:36:55.042Z,349.07
2019-06-27T18:39:25.644Z,332.50
2019-06-27T18:41:56.098Z,215.70
2019-06-27T18:44:26.815Z,158.10
2019-06-27T18:46:57.456Z,146.47
2019-06-27T18:49:28.999Z,118.07
2019-06-27T18:51:59.671Z,72.17
2019-06-27T18:54:30.048Z,53.10
2019-06-27T18:57:01.384Z,36.17
2019-06-27T18:59:31.796Z,27.07
2019-06-27T19:02:02.206Z,20.83
2019-06-27T19:04:32.719Z,14.97
2019-06-27T19:07:05.703Z,20.97
2019-06-27T19:09:36.070Z,34.70
2019-06-27T19:12:06.543Z,22.17
2019-06-27T19:14:36.999Z,23.13
2019-06-27T19:17:07.546Z,26.47
2019-06-27T19:19:39.799Z,23.03
2019-06-27T19:22:28.907Z,30.67
2019-06-27T19:25:07.272Z,35.27
2019-06-27T19:27:39.136Z,17.33
2019-06-27T19:30:10.546Z,16.17
2019-06-27T19:32:41.084Z,15.13
2019-06-27T19:35:11.529Z,14.80
2019-06-27T19:37:41.957Z,14.80
2019-06-27T19:40:12.436Z,15.77
2019-06-27T19:42:42.933Z,15.27
2019-06-27T19:45:13.831Z,17.17
2019-06-27T19:47:44.155Z,16.03
2019-06-27T19:50:14.915Z,15.90
2019-06-27T19:52:45.343Z,14.87
2019-06-27T19:55:15.791Z,15.50
2019-06-27T19:57:46.176Z,13.93
2019-06-27T20:00:17.801Z,15.10
2019-06-27T20:02:48.494Z,15.00
2019-06-27T20:05:19.564Z,15.30
2019-06-27T20:07:49.984Z,14.60
2019-06-27T20:10:21.036Z,13.87
2019-06-27T20:12:52.792Z,14.93
2019-06-27T20:15:27.195Z,15.70
2019-06-27T20:17:57.661Z,15.60
2019-06-27T20:20:28.416Z,16.73
2019-06-27T20:22:59.050Z,14.63
2019-06-27T20:25:29.404Z,15.33
2019-06-27T20:28:01.986Z,16.07
2019-06-27T20:30:33.181Z,16.60
2019-06-27T20:33:14.036Z,17.20
2019-06-27T20:35:55.622Z,17.40
2019-06-27T20:38:35.047Z,17.03
2019-06-27T20:41:01.097Z,17.20
2019-06-27T20:43:36.406Z,16.90
2019-06-27T20:46:09.289Z,16.70
2019-06-27T20:49:01.849Z,16.23
2019-06-27T20:51:32.417Z,18.17
2019-06-27T20:54:27.790Z,16.00
2019-06-27T20:57:03.372Z,19.93
2019-06-27T20:59:34.256Z,16.63
2019-06-27T21:02:23.962Z,16.80
2019-06-27T21:04:54.487Z,16.40
2019-06-27T21:07:24.849Z,22.13
2019-06-27T21:09:56.373Z,14.93
2019-06-27T21:12:26.962Z,17.43
2019-06-27T21:14:57.572Z,15.13
2019-06-27T21:17:28.064Z,15.80
2019-06-27T21:20:00.305Z,15.80
2019-06-27T21:22:33.021Z,15.07
2019-06-27T21:25:06.203Z,15.50
2019-06-27T21:27:36.983Z,16.33
2019-06-27T21:30:09.781Z,14.57
2019-06-27T21:32:40.181Z,16.60
2019-06-27T21:35:24.513Z,17.13
2019-06-27T21:37:55.735Z,16.83
2019-06-27T21:40:29.061Z,15.70
2019-06-27T21:43:00.167Z,16.33
2019-06-27T21:45:30.599Z,16.50
2019-06-27T21:48:01.737Z,16.33
2019-06-27T21:50:32.370Z,16.13
2019-06-27T21:53:03.185Z,18.03
2019-06-27T21:55:34.630Z,16.00
2019-06-27T21:58:06.321Z,16.33
2019-06-27T22:00:39.404Z,17.00
2019-06-27T22:03:10.027Z,16.90
2019-06-27T22:05:41.517Z,17.67
2019-06-27T22:08:12.023Z,16.77
2019-06-27T22:10:42.587Z,16.97
2019-06-27T22:13:12.948Z,17.20
2019-06-27T22:15:43.296Z,17.10
2019-06-27T22:18:15.401Z,17.57
2019-06-27T22:20:47.120Z,16.67
2019-06-27T22:23:17.485Z,21.93
2019-06-27T22:25:48.987Z,16.40
2019-06-27T22:28:19.395Z,17.70
2019-06-27T22:30:51.977Z,23.23
2019-06-27T22:33:24.546Z,15.90
2019-06-27T22:35:55.503Z,15.93
2019-06-27T22:38:43.333Z,20.77
2019-06-27T22:41:31.743Z,14.60
2019-06-27T22:44:19.322Z,14.63
2019-06-27T22:47:07.083Z,14.70
2019-06-27T22:49:36.996Z,14.37
2019-06-27T22:52:26.905Z,12.80
2019-06-27T22:54:59.474Z,13.50
2019-06-27T22:57:30.421Z,13.97
2019-06-27T23:00:03.277Z,16.80
2019-06-27T23:02:34.285Z,12.70
2019-06-27T23:05:05.876Z,12.83
2019-06-27T23:07:36.283Z,13.63
2019-06-27T23:10:14.595Z,14.47
2019-06-27T23:12:45.065Z,12.70
2019-06-27T23:15:15.491Z,13.30
2019-06-27T23:17:45.955Z,12.77
2019-06-27T23:20:16.755Z,12.97
2019-06-27T23:22:47.179Z,13.53
2019-06-27T23:25:17.558Z,13.17
2019-06-27T23:27:48.072Z,17.80
2019-06-27T23:30:18.689Z,11.83
2019-06-27T23:32:49.040Z,13.70
2019-06-27T23:35:19.509Z,13.80
2019-06-27T23:37:49.989Z,14.10
2019-06-27T23:40:20.381Z,12.17
2019-06-27T23:42:50.694Z,13.37
2019-06-27T23:45:21.559Z,14.50
2019-06-27T23:47:51.905Z,13.30
2019-06-27T23:50:22.276Z,11.90
2019-06-27T23:52:52.799Z,12.30
2019-06-27T23:55:25.970Z,12.10
2019-06-27T23:57:56.387Z,17.00
